KFOE/FOE METAR and TAF weather

Enter ICAO airport designator
Station Type Date Time Source
KFOE METAR 2022/01/26 07:53 UTC NOAA

KFOE 260753Z AUTO 17003KT 10SM CLR M11/M16 A3050 RMK AO2 SLP344 T11111161 $


Station Type Date Time Source
KFOE Decoded METAR 2022/01/26 07:53 UTC NOAA

FORBES FIELD, KS, United States (KFOE) 38-56N 95-39W 320M
Jan 26, 2022 - 02:53 AM EST / 2022.01.26 0753 UTC
Wind: from the S (170 degrees) at 3 MPH (3 KT):0
Visibility: 10 mile(s):0
Sky conditions: clear
Temperature: 12.0 F (-11.1 C)
Dew Point: 3.0 F (-16.1 C)
Relative Humidity: 66%
Pressure (altimeter): 30.5 in. Hg (1032 hPa)
ob: KFOE 260753Z AUTO 17003KT 10SM CLR M11/M16 A3050 RMK AO2 SLP344 T11111161
cycle: 8

Station Type Date Time Source
KFOE TAF 2022/01/26 06:22 UTC NOAA

TAF KFOE 260520Z 2606/2706 02005KT P6SM BKN060
FM261600 20011KT P6SM SCT035

Example: see airport list